Time;durP1;ratioP1;P1;durP2;ratioP2;P2;SDS_P1;SDS_P2;PMS_P1;PMS_P2;Temp;Humidity;BMP_temperature;BMP_pressure;BME280_temperature;BME280_humidity;BME280_pressure;Samples;Min_cycle;Max_cycle;Signal;HPM_P1;HPM_P2
2022/04/01 00:00:17;;;;;;;9.48;2.80;;;0.30;99.90;;;;;;5025980;28;20052;-39
2022/04/01 00:02:44;;;;;;;14.93;2.92;;;0.30;99.90;;;;;;5055686;28;20045;-39
2022/04/01 00:05:11;;;;;;;5.35;2.22;;;0.40;99.90;;;;;;5057542;28;20045;-40
2022/04/01 00:07:39;;;;;;;4.93;2.38;;;0.40;99.90;;;;;;5051244;28;20044;-41
2022/04/01 00:10:06;;;;;;;4.20;2.05;;;0.40;99.90;;;;;;5042023;28;20052;-40
2022/04/01 00:12:32;;;;;;;5.80;2.47;;;0.40;99.90;;;;;;5053542;28;20384;-40
2022/04/01 00:14:58;;;;;;;7.40;2.00;;;0.40;99.90;;;;;;5060570;28;20067;-39
2022/04/01 00:17:23;;;;;;;3.25;2.15;;;0.40;99.90;;;;;;5057218;28;20474;-39
2022/04/01 00:19:49;;;;;;;5.18;2.10;;;0.40;99.90;;;;;;5033767;28;20474;-39
2022/04/01 00:22:15;;;;;;;4.07;2.05;;;0.50;99.90;;;;;;5044663;28;20053;-39
2022/04/01 00:24:41;;;;;;;3.60;2.15;;;0.50;99.90;;;;;;5060746;28;20051;-39
2022/04/01 00:27:06;;;;;;;4.78;2.00;;;0.50;99.90;;;;;;5054038;28;20127;-41
2022/04/01 00:29:32;;;;;;;5.80;2.47;;;0.50;99.90;;;;;;5058308;28;20044;-39
2022/04/01 00:31:59;;;;;;;3.90;2.38;;;0.50;99.90;;;;;;5050624;28;20169;-40
2022/04/01 00:34:30;;;;;;;5.03;1.92;;;0.50;99.90;;;;;;5056073;28;20389;-40
2022/04/01 00:36:57;;;;;;;3.47;2.17;;;0.50;99.90;;;;;;5054309;28;20052;-40
2022/04/01 00:39:25;;;;;;;4.35;1.95;;;0.60;99.90;;;;;;5061602;28;20044;-41
2022/04/01 00:41:52;;;;;;;4.60;1.67;;;0.50;99.90;;;;;;5052102;28;20140;-40
2022/04/01 00:44:24;;;;;;;3.17;1.77;;;0.50;99.90;;;;;;5054709;28;20073;-39
2022/04/01 00:46:51;;;;;;;4.88;2.00;;;0.60;99.90;;;;;;5063850;28;20044;-39
2022/04/01 00:49:19;;;;;;;5.68;2.15;;;0.60;99.90;;;;;;5046217;28;20483;-39
2022/04/01 00:51:47;;;;;;;5.78;1.92;;;0.60;99.90;;;;;;5056391;28;20052;-39
2022/04/01 00:54:18;;;;;;;3.20;1.80;;;0.60;99.90;;;;;;5050243;28;20044;-39
2022/04/01 00:56:44;;;;;;;4.28;1.77;;;0.70;99.90;;;;;;5049779;28;20052;-40
2022/04/01 00:59:10;;;;;;;6.00;2.67;;;0.70;99.90;;;;;;5038871;28;20099;-39
2022/04/01 01:01:38;;;;;;;4.65;1.88;;;0.70;99.90;;;;;;5046747;28;20051;-41
2022/04/01 01:04:12;;;;;;;3.72;2.08;;;0.70;99.90;;;;;;5057265;28;20414;-39
2022/04/01 01:06:41;;;;;;;4.85;1.92;;;0.70;99.90;;;;;;5048040;28;20419;-40
2022/04/01 01:09:07;;;;;;;4.30;1.90;;;0.70;99.90;;;;;;5064002;28;20165;-40
2022/04/01 01:11:35;;;;;;;3.10;1.55;;;0.70;99.90;;;;;;5061818;28;20053;-40
2022/04/01 01:14:03;;;;;;;3.92;1.67;;;0.70;99.90;;;;;;5066836;28;20076;-40
2022/04/01 01:16:29;;;;;;;4.53;2.75;;;0.80;99.90;;;;;;5042888;28;20143;-48
2022/04/01 01:19:17;;;;;;;3.30;1.60;;;0.80;99.90;;;;;;5039018;28;20655;-40
2022/04/01 01:21:44;;;;;;;4.60;1.58;;;0.80;99.90;;;;;;5028356;28;20686;-41
2022/04/01 01:24:12;;;;;;;5.38;1.73;;;0.80;99.90;;;;;;5044501;28;20045;-40
2022/04/01 01:26:38;;;;;;;3.83;1.73;;;0.80;99.90;;;;;;5057514;28;20053;-40
2022/04/01 01:29:09;;;;;;;4.78;1.70;;;0.80;99.90;;;;;;5043075;28;20049;-41
2022/04/01 01:31:37;;;;;;;2.33;1.70;;;0.80;99.90;;;;;;5056003;28;20506;-40
2022/04/01 01:34:04;;;;;;;4.03;1.90;;;0.80;99.90;;;;;;5055491;28;20101;-40
2022/04/01 01:36:30;;;;;;;5.85;2.05;;;0.70;99.90;;;;;;5043067;28;20499;-40
2022/04/01 01:38:57;;;;;;;4.32;1.90;;;0.70;99.90;;;;;;5063207;28;20044;-40
2022/04/01 01:41:23;;;;;;;6.38;2.25;;;0.70;99.90;;;;;;5031984;28;20050;-40
2022/04/01 01:43:49;;;;;;;4.60;2.00;;;0.70;99.90;;;;;;5023840;28;20053;-45
2022/04/01 01:46:15;;;;;;;3.80;1.77;;;0.80;99.90;;;;;;5022609;28;20041;-40
2022/04/01 01:48:41;;;;;;;3.97;1.63;;;0.70;99.90;;;;;;5036126;28;20049;-40
2022/04/01 01:56:36;;;;;;;3.67;1.90;;;0.70;99.90;;;;;;5042168;28;20075;-39
2022/04/01 01:59:02;;;;;;;3.95;1.63;;;0.70;99.90;;;;;;5028359;28;20053;-40
2022/04/01 02:01:28;;;;;;;3.97;1.83;;;0.60;99.90;;;;;;5020479;28;20123;-40
2022/04/01 02:03:54;;;;;;;4.05;1.88;;;0.60;99.90;;;;;;5041776;28;20057;-40
2022/04/01 02:06:23;;;;;;;4.50;1.85;;;0.60;99.90;;;;;;5042648;28;20052;-40
2022/04/01 02:08:50;;;;;;;6.85;2.20;;;0.60;99.90;;;;;;5042177;28;20122;-40
2022/04/01 02:11:20;;;;;;;5.10;1.50;;;0.60;99.90;;;;;;5041312;28;20057;-40
2022/04/01 02:13:45;;;;;;;3.90;2.00;;;0.60;99.90;;;;;;5043681;28;20048;-40
2022/04/01 02:16:12;;;;;;;4.07;2.10;;;0.60;99.90;;;;;;5031637;28;20516;-40
2022/04/01 02:18:38;;;;;;;3.00;2.08;;;0.60;99.90;;;;;;5040252;28;20046;-40
2022/04/01 02:21:10;;;;;;;5.53;1.90;;;0.60;99.90;;;;;;5028900;28;20056;-42
2022/04/01 02:23:41;;;;;;;5.80;2.47;;;0.60;99.90;;;;;;5024261;28;20057;-56
2022/04/01 02:26:07;;;;;;;3.78;2.15;;;0.60;99.90;;;;;;5025661;28;20134;-40
2022/04/01 02:28:34;;;;;;;4.25;2.30;;;0.60;99.90;;;;;;5034204;28;20531;-41
2022/04/01 02:31:00;;;;;;;5.72;2.25;;;0.60;99.90;;;;;;5030827;28;20049;-40
2022/04/01 02:33:27;;;;;;;2.88;1.70;;;0.60;99.90;;;;;;5040633;28;20060;-40
2022/04/01 02:35:54;;;;;;;3.78;2.00;;;0.60;99.90;;;;;;5037433;28;20057;-40
2022/04/01 02:38:20;;;;;;;3.92;2.00;;;0.60;99.90;;;;;;5041161;28;20053;-40
2022/04/01 02:40:45;;;;;;;5.65;2.15;;;0.60;99.90;;;;;;5035577;28;20048;-40
2022/04/01 02:43:11;;;;;;;5.60;2.42;;;0.60;99.90;;;;;;5050227;28;20535;-40
2022/04/01 02:45:37;;;;;;;5.68;2.08;;;0.60;99.90;;;;;;5044575;28;20068;-40
2022/04/01 02:48:05;;;;;;;6.18;2.30;;;0.70;99.90;;;;;;5034163;28;20089;-40
2022/04/01 02:50:30;;;;;;;8.23;2.40;;;0.60;99.90;;;;;;5036000;28;20052;-40
2022/04/01 02:52:56;;;;;;;5.85;2.22;;;0.70;99.90;;;;;;5057224;28;20059;-40
2022/04/01 02:55:28;;;;;;;6.35;2.75;;;0.70;99.90;;;;;;5045596;28;20139;-40
2022/04/01 02:57:54;;;;;;;4.68;2.13;;;0.70;99.90;;;;;;5041772;28;20117;-40
2022/04/01 03:00:21;;;;;;;6.22;1.98;;;0.70;99.90;;;;;;5056854;28;20503;-40
2022/04/01 03:02:51;;;;;;;5.53;1.85;;;0.70;99.90;;;;;;5060072;28;20136;-39
2022/04/01 03:05:17;;;;;;;3.13;1.75;;;0.70;99.90;;;;;;5060374;28;20455;-40
2022/04/01 03:07:44;;;;;;;5.97;2.20;;;0.70;99.90;;;;;;5050074;28;20053;-40
2022/04/01 03:10:11;;;;;;;6.72;2.53;;;0.70;99.90;;;;;;5058632;28;20440;-40
2022/04/01 03:12:37;;;;;;;4.22;1.85;;;0.70;99.90;;;;;;5058674;28;20510;-39
2022/04/01 03:15:04;;;;;;;4.60;2.05;;;0.70;99.90;;;;;;5058367;28;20041;-40
2022/04/01 03:17:33;;;;;;;6.05;2.20;;;0.70;99.90;;;;;;5030658;28;20412;-40
2022/04/01 03:20:11;;;;;;;3.45;1.90;;;0.70;99.90;;;;;;5059139;28;20044;-40
2022/04/01 03:22:36;;;;;;;4.55;2.17;;;0.70;99.90;;;;;;5063801;28;20058;-40
2022/04/01 03:25:05;;;;;;;8.65;3.13;;;0.70;99.90;;;;;;5061771;28;20048;-40
2022/04/01 03:27:31;;;;;;;5.28;2.03;;;0.70;99.90;;;;;;5061592;28;20407;-40
2022/04/01 03:29:57;;;;;;;8.68;2.83;;;0.60;99.90;;;;;;5048544;28;20057;-40
2022/04/01 03:32:23;;;;;;;4.05;2.00;;;0.70;99.90;;;;;;5060135;28;20117;-40
2022/04/01 03:34:49;;;;;;;4.22;2.03;;;0.70;99.90;;;;;;5059952;28;20590;-40
2022/04/01 03:37:14;;;;;;;7.72;3.03;;;0.70;99.90;;;;;;5048069;28;20041;-39
2022/04/01 03:39:41;;;;;;;5.93;1.75;;;0.70;99.90;;;;;;5053939;28;20089;-39
2022/04/01 03:42:08;;;;;;;3.58;2.20;;;0.70;99.90;;;;;;5025216;28;20076;-40
2022/04/01 03:44:37;;;;;;;6.55;2.17;;;0.70;99.90;;;;;;5054502;28;20058;-40
2022/04/01 03:47:15;;;;;;;5.03;2.22;;;0.70;99.90;;;;;;5048264;28;20041;-48
2022/04/01 03:49:51;;;;;;;3.63;2.13;;;0.70;99.90;;;;;;5049708;28;20056;-39
2022/04/01 03:52:18;;;;;;;5.68;2.50;;;0.70;99.90;;;;;;5048414;28;20430;-40
2022/04/01 03:54:47;;;;;;;7.53;2.30;;;0.70;99.90;;;;;;5059694;28;20099;-40
2022/04/01 03:57:15;;;;;;;5.47;2.05;;;0.70;99.90;;;;;;5045737;28;20410;-40
2022/04/01 03:59:41;;;;;;;3.92;1.90;;;0.80;99.90;;;;;;5060287;28;20074;-40
2022/04/01 04:02:14;;;;;;;5.65;2.30;;;0.80;99.90;;;;;;5047738;28;20136;-40
2022/04/01 04:04:40;;;;;;;4.43;2.10;;;0.80;99.90;;;;;;5048529;28;20052;-40
2022/04/01 04:07:07;;;;;;;3.83;1.95;;;0.80;99.90;;;;;;5050093;28;20136;-39
2022/04/01 04:09:39;;;;;;;6.38;2.15;;;0.80;99.90;;;;;;5050847;28;20097;-40
2022/04/01 04:12:13;;;;;;;6.97;2.00;;;0.80;99.90;;;;;;5046784;28;20118;-39
2022/04/01 04:14:42;;;;;;;6.57;1.92;;;0.80;99.90;;;;;;5048461;28;20134;-39
2022/04/01 04:17:14;;;;;;;5.10;1.80;;;0.80;99.90;;;;;;5043071;28;20036;-40
2022/04/01 04:19:51;;;;;;;2.97;1.52;;;0.80;99.90;;;;;;5054628;28;20127;-39
2022/04/01 04:22:27;;;;;;;4.03;1.63;;;0.80;99.90;;;;;;5033573;28;20064;-40
2022/04/01 04:25:10;;;;;;;4.70;2.15;;;0.80;99.90;;;;;;5058983;28;20129;-40
2022/04/01 04:27:36;;;;;;;4.32;1.70;;;0.90;99.90;;;;;;5045142;28;20049;-39
2022/04/01 04:30:08;;;;;;;5.22;1.90;;;0.90;99.90;;;;;;5055301;28;20049;-40
2022/04/01 04:32:39;;;;;;;5.47;1.80;;;0.90;99.90;;;;;;5066213;28;20082;-39
2022/04/01 04:35:08;;;;;;;5.85;1.85;;;0.90;99.90;;;;;;5049022;28;20094;-39
2022/04/01 04:37:47;;;;;;;6.03;1.73;;;0.90;99.90;;;;;;5057897;28;20059;-39
2022/04/01 04:40:17;;;;;;;5.10;1.70;;;0.90;99.90;;;;;;5028378;28;20079;-39
2022/04/01 04:42:49;;;;;;;4.20;1.70;;;1.00;99.90;;;;;;5042442;28;20057;-39
2022/04/01 04:45:19;;;;;;;4.73;1.93;;;0.90;99.90;;;;;;5040802;28;20491;-40
2022/04/01 04:47:46;;;;;;;4.20;1.70;;;0.90;99.90;;;;;;5023674;28;20133;-39
2022/04/01 04:50:12;;;;;;;5.40;1.92;;;1.00;99.90;;;;;;5059785;28;20089;-39
2022/04/01 04:52:39;;;;;;;4.57;1.55;;;1.00;99.90;;;;;;5046840;28;20060;-39
2022/04/01 04:55:13;;;;;;;3.08;1.75;;;0.90;99.90;;;;;;5041928;28;20359;-39
2022/04/01 04:57:39;;;;;;;3.58;1.80;;;1.00;99.90;;;;;;5046926;28;20048;-39
2022/04/01 05:00:05;;;;;;;5.70;1.73;;;1.00;99.90;;;;;;5039990;28;20422;-40
2022/04/01 05:02:59;;;;;;;6.15;1.92;;;0.90;99.90;;;;;;5039558;28;20051;-39
2022/04/01 05:05:26;;;;;;;4.60;1.63;;;1.00;99.90;;;;;;5057867;28;20055;-39
2022/04/01 05:08:17;;;;;;;4.72;1.60;;;1.00;99.90;;;;;;5051115;28;20052;-40
2022/04/01 05:10:52;;;;;;;6.00;1.92;;;1.00;99.90;;;;;;5055528;28;20092;-40
2022/04/01 05:13:31;;;;;;;3.50;1.50;;;1.00;99.90;;;;;;5059874;28;20083;-40
2022/04/01 05:16:07;;;;;;;5.55;1.80;;;1.00;99.90;;;;;;5044684;28;20105;-39
2022/04/01 05:18:42;;;;;;;5.45;2.00;;;1.00;99.90;;;;;;5045420;28;20041;-40
2022/04/01 05:21:23;;;;;;;7.82;2.22;;;1.00;99.90;;;;;;5060354;28;20496;-39
2022/04/01 05:24:01;;;;;;;5.18;1.80;;;1.00;99.90;;;;;;5028057;28;20056;-39
2022/04/01 05:26:40;;;;;;;3.97;1.70;;;1.10;99.90;;;;;;5049875;28;20661;-40
2022/04/01 05:29:13;;;;;;;6.15;3.17;;;1.10;99.90;;;;;;5033655;28;20159;-39
2022/04/01 05:32:05;;;;;;;4.63;1.55;;;1.10;99.90;;;;;;5064730;28;20052;-40
2022/04/01 05:34:47;;;;;;;4.22;1.58;;;1.10;99.90;;;;;;5060124;28;20053;-44
2022/04/01 05:37:15;;;;;;;3.03;1.40;;;1.20;99.90;;;;;;5042576;28;20133;-39
2022/04/01 05:39:42;;;;;;;5.32;1.90;;;1.20;99.90;;;;;;5043168;28;20076;-39
2022/04/01 05:42:09;;;;;;;7.03;2.30;;;1.20;99.90;;;;;;5040225;28;20463;-39
2022/04/01 05:44:36;;;;;;;5.50;1.80;;;1.20;99.90;;;;;;5043620;28;20068;-40
2022/04/01 05:47:03;;;;;;;3.92;2.10;;;1.20;99.90;;;;;;5056080;28;20541;-40
2022/04/01 05:49:29;;;;;;;4.15;1.42;;;1.20;99.90;;;;;;5055623;28;20056;-39
2022/04/01 05:51:55;;;;;;;4.35;1.60;;;1.20;99.90;;;;;;5043657;28;20088;-40
2022/04/01 05:54:22;;;;;;;5.47;1.80;;;1.30;99.90;;;;;;5049351;28;20126;-39
2022/04/01 05:56:50;;;;;;;6.57;2.30;;;1.30;99.90;;;;;;5041303;28;20460;-40
2022/04/01 05:59:19;;;;;;;5.93;1.92;;;1.30;99.90;;;;;;5059369;28;20149;-39
2022/04/01 06:01:56;;;;;;;4.40;1.80;;;1.30;99.90;;;;;;5062193;28;20517;-40
2022/04/01 06:05:03;;;;;;;4.85;2.40;;;1.40;99.90;;;;;;5044256;28;20063;-39
2022/04/01 06:07:54;;;;;;;5.50;1.88;;;1.40;99.90;;;;;;5049927;28;20052;-39
2022/04/01 06:10:57;;;;;;;5.93;1.85;;;1.40;99.90;;;;;;5061173;28;20056;-39
2022/04/01 06:13:43;;;;;;;4.38;1.67;;;1.40;99.90;;;;;;5047664;28;20048;-39
2022/04/01 06:16:43;;;;;;;3.88;1.75;;;1.50;99.90;;;;;;5051176;28;20049;-39
2022/04/01 06:19:31;;;;;;;5.05;1.98;;;1.50;99.90;;;;;;5050459;28;20064;-39
2022/04/01 06:22:03;;;;;;;6.07;1.55;;;1.50;99.90;;;;;;5043352;28;20052;-39
2022/04/01 06:24:54;;;;;;;4.10;1.70;;;1.50;99.90;;;;;;5038787;28;20083;-39
2022/04/01 06:27:43;;;;;;;6.28;2.67;;;1.60;99.90;;;;;;5061350;28;20563;-39
2022/04/01 06:30:11;;;;;;;9.32;1.98;;;1.60;99.90;;;;;;5042593;28;20491;-39
2022/04/01 06:32:45;;;;;;;4.00;1.67;;;1.60;99.90;;;;;;5056115;28;20044;-39
2022/04/01 06:35:18;;;;;;;3.38;1.90;;;1.70;99.90;;;;;;5061276;28;20067;-39
2022/04/01 06:37:57;;;;;;;6.05;2.33;;;1.70;99.90;;;;;;5053110;28;20059;-39
2022/04/01 06:40:27;;;;;;;5.35;1.70;;;1.70;99.90;;;;;;5037562;28;20068;-39
2022/04/01 06:42:55;;;;;;;5.88;3.10;;;1.70;99.90;;;;;;5038056;28;20100;-39
2022/04/01 06:45:21;;;;;;;8.23;2.00;;;1.80;99.90;;;;;;5045041;28;20043;-39
2022/04/01 06:47:47;;;;;;;4.43;1.80;;;1.80;99.90;;;;;;5045502;28;20048;-39
2022/04/01 06:50:16;;;;;;;4.88;1.90;;;1.80;99.90;;;;;;5051172;28;20041;-40
2022/04/01 06:52:43;;;;;;;3.33;1.75;;;1.80;99.90;;;;;;5051846;28;20484;-39
2022/04/01 06:55:10;;;;;;;5.93;1.90;;;1.90;99.90;;;;;;5032757;28;20146;-39
2022/04/01 06:57:36;;;;;;;4.28;1.90;;;1.90;99.90;;;;;;5054107;28;20052;-41
2022/04/01 07:00:08;;;;;;;4.78;2.17;;;1.90;99.90;;;;;;5047030;28;20049;-41
2022/04/01 07:02:35;;;;;;;6.53;2.03;;;1.90;99.90;;;;;;5035417;28;20402;-40
2022/04/01 07:05:02;;;;;;;6.13;1.85;;;2.00;99.90;;;;;;5049497;28;20037;-40
2022/04/01 07:07:28;;;;;;;4.38;1.70;;;2.00;99.90;;;;;;5031864;28;20537;-40
2022/04/01 07:09:54;;;;;;;3.78;2.03;;;2.00;99.90;;;;;;5060933;28;20056;-41
2022/04/01 07:12:20;;;;;;;3.80;1.50;;;2.00;99.90;;;;;;5056812;28;20106;-40
2022/04/01 07:14:45;;;;;;;5.78;2.22;;;2.10;99.90;;;;;;5053825;28;20044;-41
2022/04/01 07:17:11;;;;;;;3.28;2.10;;;2.10;99.90;;;;;;5049831;28;20375;-40
2022/04/01 07:19:37;;;;;;;3.22;1.80;;;2.20;99.90;;;;;;5033044;28;20048;-40
2022/04/01 07:22:03;;;;;;;4.53;1.73;;;2.20;99.90;;;;;;5040969;28;20488;-40
2022/04/01 07:24:30;;;;;;;4.15;1.83;;;2.20;99.90;;;;;;5050755;28;20045;-40
2022/04/01 07:26:56;;;;;;;2.95;2.17;;;2.30;99.90;;;;;;5053709;28;20059;-41
2022/04/01 07:29:22;;;;;;;3.65;1.60;;;2.30;99.90;;;;;;5035421;28;20048;-41
2022/04/01 07:34:38;;;;;;;3.88;2.10;;;2.40;99.90;;;;;;5058843;28;20129;-40
2022/04/01 07:37:05;;;;;;;3.00;1.20;;;2.50;99.90;;;;;;5061095;28;20048;-41
2022/04/01 07:39:31;;;;;;;2.22;1.30;;;2.50;99.90;;;;;;5055926;28;20095;-41
2022/04/01 07:41:57;;;;;;;3.17;1.50;;;2.50;99.90;;;;;;5056170;28;20091;-40
2022/04/01 07:44:23;;;;;;;4.47;1.20;;;2.50;99.90;;;;;;5061060;28;20071;-41
2022/04/01 07:46:53;;;;;;;3.07;1.47;;;2.60;99.90;;;;;;5052065;28;20132;-48
2022/04/01 07:49:19;;;;;;;27.15;24.23;;;2.60;99.90;;;;;;5045537;28;20591;-41
2022/04/01 07:51:45;;;;;;;5.30;3.53;;;2.70;99.90;;;;;;5059367;28;20055;-40
2022/04/01 07:54:13;;;;;;;3.70;2.25;;;2.80;99.90;;;;;;5059857;28;20052;-40
2022/04/01 07:56:40;;;;;;;5.85;1.73;;;2.90;99.90;;;;;;5059628;28;20051;-41
2022/04/01 07:59:14;;;;;;;3.42;1.35;;;2.90;99.90;;;;;;5048541;28;20052;-40
2022/04/01 08:01:39;;;;;;;;;;;3.00;99.90;;;;;;5059364;28;20560;-40
2022/04/01 08:04:05;;;;;;;3.13;2.08;;;3.00;99.90;;;;;;5060597;28;19925;-40
2022/04/01 08:06:31;;;;;;;3.80;1.90;;;3.00;99.90;;;;;;5058560;28;20102;-40
2022/04/01 08:08:58;;;;;;;3.30;2.90;;;3.00;99.90;;;;;;5034329;28;20476;-40
2022/04/01 08:11:27;;;;;;;5.63;1.65;;;3.00;99.90;;;;;;5036417;28;20431;-40
2022/04/01 08:13:56;;;;;;;5.63;1.73;;;3.00;99.90;;;;;;5015421;28;20064;-40
2022/04/01 08:16:23;;;;;;;4.40;1.50;;;3.00;99.90;;;;;;5022549;28;20045;-40
2022/04/01 08:18:49;;;;;;;4.28;1.40;;;3.10;99.90;;;;;;5032978;28;20526;-40
2022/04/01 08:21:15;;;;;;;5.07;1.75;;;3.10;99.90;;;;;;5014605;28;20488;-40
2022/04/01 08:23:42;;;;;;;2.75;1.55;;;3.10;99.90;;;;;;5031670;28;20045;-40
2022/04/01 08:26:11;;;;;;;3.17;1.92;;;3.10;99.90;;;;;;5035100;28;20538;-40
2022/04/01 08:28:38;;;;;;;6.43;2.05;;;3.10;99.90;;;;;;5032879;28;20052;-40
2022/04/01 08:31:05;;;;;;;3.22;2.22;;;3.20;99.90;;;;;;5034717;28;20064;-39
2022/04/01 08:33:31;;;;;;;5.13;1.98;;;3.20;99.90;;;;;;5030329;28;20080;-40
2022/04/01 08:35:57;;;;;;;2.83;1.80;;;3.10;99.90;;;;;;5020759;28;20397;-39
2022/04/01 08:38:23;;;;;;;4.50;1.40;;;3.20;99.90;;;;;;5020665;28;20053;-40
2022/04/01 08:40:49;;;;;;;4.85;1.80;;;3.20;99.90;;;;;;5033051;28;20064;-40
2022/04/01 08:43:36;;;;;;;2.38;1.75;;;3.20;99.90;;;;;;5032400;28;20045;-40
2022/04/01 08:46:05;;;;;;;3.70;1.80;;;3.30;99.90;;;;;;5038645;28;20049;-40
2022/04/01 08:48:32;;;;;;;3.92;1.80;;;3.40;99.90;;;;;;5037794;28;20241;-39
2022/04/01 08:50:59;;;;;;;3.97;2.03;;;3.40;99.90;;;;;;5028228;28;20057;-39
2022/04/01 08:53:24;;;;;;;3.78;2.05;;;3.40;99.90;;;;;;5019368;28;20407;-40
2022/04/01 08:55:54;;;;;;;4.38;1.98;;;3.30;99.90;;;;;;5031115;28;20044;-39
2022/04/01 08:58:22;;;;;;;6.65;1.92;;;3.30;99.90;;;;;;5030326;28;20490;-40
2022/04/01 09:00:48;;;;;;;5.15;2.05;;;3.30;99.90;;;;;;5036566;28;20195;-39
2022/04/01 09:03:16;;;;;;;6.70;2.20;;;3.50;99.90;;;;;;5024281;28;20088;-40
2022/04/01 09:05:50;;;;;;;3.83;1.90;;;3.50;99.90;;;;;;5036406;28;20045;-39
2022/04/01 09:08:37;;;;;;;2.97;1.75;;;3.50;99.90;;;;;;5025720;28;20060;-39
2022/04/01 09:11:04;;;;;;;4.38;1.83;;;3.40;99.90;;;;;;5044723;28;20157;-39
2022/04/01 09:13:48;;;;;;;3.30;1.50;;;3.50;99.90;;;;;;5041402;28;20505;-39
2022/04/01 09:16:23;;;;;;;4.43;2.45;;;3.50;99.90;;;;;;5030431;28;20151;-39
2022/04/01 09:18:52;;;;;;;5.53;2.30;;;3.60;99.90;;;;;;5029745;28;20053;-40
2022/04/01 09:21:17;;;;;;;5.85;2.15;;;3.50;99.90;;;;;;5043809;28;20049;-39
2022/04/01 09:23:48;;;;;;;4.43;2.00;;;3.60;99.90;;;;;;5041865;28;20387;-39
2022/04/01 09:26:15;;;;;;;3.58;2.03;;;3.70;99.90;;;;;;5040867;28;20052;-39
2022/04/01 09:28:41;;;;;;;3.45;1.55;;;3.80;99.90;;;;;;5041487;28;20088;-39
2022/04/01 09:31:13;;;;;;;3.42;1.80;;;3.90;99.90;;;;;;5040592;28;20049;-40
2022/04/01 09:33:49;;;;;;;4.50;2.30;;;4.10;99.90;;;;;;5042435;28;20526;-39
2022/04/01 09:36:18;;;;;;;4.53;2.00;;;4.20;99.90;;;;;;5041541;28;20486;-39
2022/04/01 09:38:54;;;;;;;6.65;2.40;;;4.30;99.90;;;;;;5042422;28;20076;-39
2022/04/01 09:41:20;;;;;;;3.28;2.20;;;4.40;99.90;;;;;;5040825;28;20546;-40
2022/04/01 09:43:46;;;;;;;3.60;2.38;;;4.40;99.90;;;;;;5039088;28;20352;-39
2022/04/01 09:46:26;;;;;;;4.72;1.77;;;4.30;99.90;;;;;;5017670;28;20480;-40
2022/04/01 09:48:56;;;;;;;5.03;2.83;;;4.30;99.90;;;;;;5037544;28;20088;-40
2022/04/01 09:51:23;;;;;;;6.10;3.10;;;4.20;99.90;;;;;;5041552;28;20053;-40
2022/04/01 09:53:53;;;;;;;5.20;3.05;;;4.20;99.90;;;;;;5042720;28;20037;-39
2022/04/01 09:56:38;;;;;;;5.75;2.90;;;4.30;99.90;;;;;;5042222;28;20045;-40
2022/04/01 09:59:05;;;;;;;6.78;4.30;;;4.30;99.90;;;;;;5041689;28;20045;-40
2022/04/01 10:01:37;;;;;;;5.82;2.30;;;4.40;99.90;;;;;;5045662;28;20060;-40
2022/04/01 10:04:04;;;;;;;6.75;2.22;;;4.30;99.90;;;;;;5042267;28;20102;-46
2022/04/01 10:06:32;;;;;;;3.25;1.90;;;4.20;99.90;;;;;;5042819;28;20052;-40
2022/04/01 10:09:05;;;;;;;6.85;4.03;;;4.10;99.90;;;;;;5041814;28;20445;-40
2022/04/01 10:11:31;;;;;;;4.85;3.58;;;4.20;99.90;;;;;;5050015;28;20057;-40
2022/04/01 10:14:08;;;;;;;6.72;2.67;;;4.10;99.90;;;;;;5062260;28;20536;-39
2022/04/01 10:16:35;;;;;;;4.07;2.67;;;4.00;99.90;;;;;;5059868;28;20056;-40
2022/04/01 10:19:06;;;;;;;4.55;2.40;;;4.00;99.90;;;;;;5060682;28;20105;-40
2022/04/01 10:21:35;;;;;;;3.08;2.00;;;4.10;99.90;;;;;;5059855;28;20448;-40
2022/04/01 10:24:14;;;;;;;4.35;2.42;;;4.20;99.90;;;;;;5040500;28;20067;-40
2022/04/01 10:26:53;;;;;;;3.15;2.00;;;4.20;99.90;;;;;;5041921;28;20061;-40
2022/04/01 10:29:19;;;;;;;7.22;2.40;;;4.10;99.90;;;;;;5060990;28;20044;-40
2022/04/01 10:31:55;;;;;;;3.70;2.15;;;4.10;99.90;;;;;;5059758;28;20068;-40
2022/04/01 10:34:23;;;;;;;5.72;2.40;;;4.30;99.90;;;;;;5060452;28;20055;-40
2022/04/01 10:37:00;;;;;;;4.68;2.33;;;4.50;99.90;;;;;;5059708;28;20161;-40
2022/04/01 10:40:05;;;;;;;3.38;2.08;;;4.60;99.90;;;;;;5060191;28;20443;-40
2022/04/01 10:42:34;;;;;;;4.93;2.35;;;4.70;99.90;;;;;;4968842;28;20081;-40
2022/04/01 10:45:08;;;;;;;6.10;2.10;;;4.80;99.90;;;;;;4969821;28;20070;-40
2022/04/01 10:51:36;;;;;;;5.63;2.40;;;4.80;99.90;;;;;;4989118;28;20481;-40
2022/04/01 10:53:37;;;;;;;4.07;2.35;;;5.10;99.90;;;;;;4966906;28;20456;-40
2022/04/01 10:56:24;;;;;;;5.22;2.35;;;5.00;99.90;;;;;;4967448;28;20077;-41
2022/04/01 10:59:06;;;;;;;3.35;1.90;;;5.00;99.90;;;;;;4977780;28;20894;-40
2022/04/01 11:01:34;;;;;;;4.00;2.10;;;5.10;99.90;;;;;;4956195;28;20054;-40
2022/04/01 11:04:21;;;;;;;4.82;2.53;;;5.30;99.90;;;;;;4976258;28;20097;-42
2022/04/01 11:07:01;;;;;;;3.33;1.90;;;5.50;99.90;;;;;;4978368;28;20413;-40
2022/04/01 11:09:40;;;;;;;3.60;2.40;;;5.60;99.90;;;;;;4954451;28;20059;-40
2022/04/01 11:12:19;;;;;;;4.43;2.55;;;5.60;99.90;;;;;;4965953;28;20085;-41
2022/04/01 11:14:59;;;;;;;2.80;1.90;;;5.70;99.90;;;;;;4979741;28;20058;-43
2022/04/01 11:17:49;;;;;;;4.60;1.85;;;5.60;99.90;;;;;;4977396;28;20084;-41
2022/04/01 11:20:32;;;;;;;2.78;1.85;;;5.50;99.90;;;;;;5038002;28;20049;-41
2022/04/01 11:23:01;;;;;;;4.40;2.08;;;5.40;99.90;;;;;;5033523;28;20045;-40
2022/04/01 11:25:32;;;;;;;5.25;1.25;;;5.60;99.90;;;;;;5014258;28;20049;-41
2022/04/01 11:28:10;;;;;;;1.60;1.30;;;5.50;99.90;;;;;;5035823;28;20455;-40
2022/04/01 11:30:43;;;;;;;3.00;1.42;;;5.40;99.90;;;;;;5040162;28;20140;-40
2022/04/01 11:33:20;;;;;;;4.15;1.63;;;5.20;99.90;;;;;;5039516;28;20057;-40
2022/04/01 11:35:51;;;;;;;3.90;2.38;;;5.20;99.90;;;;;;5039933;28;20048;-41
2022/04/01 11:38:22;;;;;;;8.50;3.70;;;5.20;99.90;;;;;;5040929;28;20056;-40
2022/04/01 11:40:57;;;;;;;16.02;7.75;;;5.40;99.90;;;;;;5004655;28;20538;-41
2022/04/01 11:43:24;;;;;;;15.02;7.60;;;5.40;99.90;;;;;;5029417;28;20529;-43
2022/04/01 11:45:59;;;;;;;20.02;13.90;;;5.30;99.90;;;;;;5026158;28;20045;-40
2022/04/01 11:48:39;;;;;;;6.20;1.80;;;5.30;99.90;;;;;;5041024;28;20098;-40
2022/04/01 11:51:10;;;;;;;47.22;27.38;;;5.30;99.90;;;;;;5039054;28;20135;-40
2022/04/01 11:53:39;;;;;;;25.00;14.20;;;5.50;99.90;;;;;;5027068;28;20081;-40
2022/04/01 11:56:08;;;;;;;101.22;53.95;;;5.60;99.90;;;;;;5014316;28;20053;-40
2022/04/01 11:58:51;;;;;;;4.82;4.43;;;5.40;99.90;;;;;;5035789;28;20507;-40
2022/04/01 12:01:21;;;;;;;;;;;5.40;99.90;;;;;;5040729;28;20053;-41
2022/04/01 12:03:47;;;;;;;4.30;3.70;;;5.50;99.90;;;;;;5021111;28;20304;-40
2022/04/01 12:09:04;;;;;;;3.10;2.00;;;5.30;99.90;;;;;;5040859;28;20478;-40
2022/04/01 12:11:39;;;;;;;3.97;2.03;;;5.40;99.90;;;;;;5049890;28;20048;-41
2022/04/01 12:14:04;;;;;;;2.55;1.25;;;5.50;99.90;;;;;;5040857;28;20053;-40
2022/04/01 12:16:30;;;;;;;4.53;1.70;;;5.60;99.90;;;;;;5042699;28;20480;-40
2022/04/01 12:18:57;;;;;;;2.50;1.35;;;5.80;99.90;;;;;;5056734;28;20053;-41
2022/04/01 12:21:23;;;;;;;2.80;1.30;;;5.90;99.90;;;;;;5044568;28;20480;-40
2022/04/01 12:23:51;;;;;;;2.60;1.52;;;6.00;99.90;;;;;;5048293;28;20041;-41
2022/04/01 12:26:20;;;;;;;3.47;2.00;;;6.00;99.90;;;;;;5043999;28;20075;-40
2022/04/01 12:28:49;;;;;;;2.88;1.50;;;6.10;99.90;;;;;;5035103;28;20053;-40
2022/04/01 12:31:20;;;;;;;6.47;1.90;;;6.00;99.90;;;;;;5043294;28;20052;-40
2022/04/01 12:33:51;;;;;;;5.70;2.08;;;6.00;99.90;;;;;;5043045;28;20051;-41
2022/04/01 12:36:33;;;;;;;3.20;1.42;;;6.10;99.90;;;;;;5042932;28;20045;-41
2022/04/01 12:39:11;;;;;;;5.57;1.92;;;6.20;99.90;;;;;;5043329;28;20548;-40
2022/04/01 12:41:59;;;;;;;5.32;2.33;;;6.20;99.90;;;;;;5021540;28;20048;-40
2022/04/01 12:44:30;;;;;;;6.13;2.13;;;6.10;99.90;;;;;;5047244;28;20053;-40
2022/04/01 12:46:59;;;;;;;6.75;1.83;;;6.10;99.90;;;;;;5054656;28;20386;-40
2022/04/01 12:49:27;;;;;;;4.03;1.45;;;6.10;99.90;;;;;;5047246;28;20375;-40
2022/04/01 12:51:57;;;;;;;5.55;1.95;;;6.10;99.90;;;;;;5047320;28;20057;-42
2022/04/01 12:54:47;;;;;;;5.25;2.50;;;6.10;99.90;;;;;;5030917;28;20118;-41
2022/04/01 12:57:13;;;;;;;6.28;2.47;;;6.10;99.90;;;;;;5056136;28;20044;-41
2022/04/01 12:59:46;;;;;;;3.58;2.00;;;6.20;99.90;;;;;;5025151;28;20053;-39
2022/04/01 13:02:16;;;;;;;5.38;1.88;;;6.10;99.90;;;;;;5050455;28;20044;-39
2022/04/01 13:04:51;;;;;;;4.82;1.92;;;5.90;99.90;;;;;;5063054;28;20415;-38
2022/04/01 13:07:28;;;;;;;6.60;3.30;;;5.70;99.90;;;;;;5029577;28;20044;-38
2022/04/01 13:10:00;;;;;;;2.97;1.70;;;5.60;99.90;;;;;;5048889;28;20520;-38
2022/04/01 13:12:34;;;;;;;3.55;1.65;;;5.80;99.90;;;;;;5043405;28;20056;-38
2022/04/01 13:15:17;;;;;;;12.05;1.90;;;5.80;99.90;;;;;;5023482;28;20411;-38
2022/04/01 13:17:51;;;;;;;3.35;1.70;;;5.70;99.90;;;;;;5041749;28;20044;-38
2022/04/01 13:20:25;;;;;;;3.38;1.73;;;5.80;99.90;;;;;;5039280;28;20099;-38
2022/04/01 13:22:52;;;;;;;5.90;1.92;;;5.80;99.90;;;;;;5042235;28;20053;-39
2022/04/01 13:25:18;;;;;;;2.95;1.50;;;5.80;99.90;;;;;;5024712;28;20270;-38
2022/04/01 13:27:46;;;;;;;3.85;1.42;;;5.80;99.90;;;;;;5041947;28;20470;-38
2022/04/01 13:30:13;;;;;;;6.75;2.22;;;5.70;99.90;;;;;;5041995;28;20053;-38